createdAt,value
2023-01-15T00:01:48.456Z,85.32
2023-01-15T00:06:51.288Z,85.06
2023-01-15T00:11:55.137Z,85.10
2023-01-15T00:16:57.977Z,84.52
2023-01-15T00:22:00.832Z,84.16
2023-01-15T00:27:24.693Z,83.97
2023-01-15T00:32:29.869Z,83.32
2023-01-15T00:37:32.962Z,83.48
2023-01-15T00:42:35.840Z,82.87
2023-01-15T00:47:44.384Z,82.77
2023-01-15T00:52:47.790Z,82.61
2023-01-15T00:57:50.591Z,82.38
2023-01-15T01:02:53.344Z,82.06
2023-01-15T01:07:56.119Z,81.86
2023-01-15T01:12:58.947Z,81.76
2023-01-15T01:18:02.106Z,81.36
2023-01-15T01:23:04.933Z,81.01
2023-01-15T01:28:07.735Z,80.75
2023-01-15T01:33:10.551Z,80.80
2023-01-15T01:38:13.301Z,81.00
2023-01-15T01:43:22.071Z,80.67
2023-01-15T01:48:30.408Z,80.77
2023-01-15T01:53:33.267Z,80.90
2023-01-15T01:58:36.024Z,80.84
2023-01-15T02:03:38.886Z,81.32
2023-01-15T02:08:42.109Z,81.20
2023-01-15T02:14:06.331Z,81.19
2023-01-15T02:19:36.642Z,81.12
2023-01-15T02:25:21.193Z,81.04
2023-01-15T02:30:44.284Z,81.32
2023-01-15T02:35:50.669Z,81.52
2023-01-15T02:40:55.406Z,81.26
2023-01-15T02:45:58.691Z,81.15
2023-01-15T02:51:08.291Z,81.74
2023-01-15T02:56:20.675Z,81.39
2023-01-15T03:01:51.195Z,81.44
2023-01-15T03:07:23.333Z,81.16
2023-01-15T03:12:33.890Z,81.48
2023-01-15T03:17:43.690Z,81.16
2023-01-15T03:22:46.993Z,81.12
2023-01-15T03:27:49.895Z,80.96
2023-01-15T03:32:54.143Z,81.05
2023-01-15T03:37:57.337Z,80.50
2023-01-15T03:43:20.670Z,80.62
2023-01-15T03:48:46.876Z,80.31
2023-01-15T03:53:56.556Z,80.58
2023-01-15T03:59:21.874Z,80.47
2023-01-15T04:04:26.206Z,80.33
2023-01-15T04:09:29.044Z,80.27
2023-01-15T04:14:32.072Z,80.22
2023-01-15T04:19:35.014Z,80.13
2023-01-15T04:24:38.368Z,79.78
2023-01-15T04:29:41.214Z,79.68
2023-01-15T04:34:44.060Z,79.85
2023-01-15T04:39:47.848Z,79.48
2023-01-15T04:44:50.647Z,79.35
2023-01-15T04:49:53.884Z,79.19
2023-01-15T04:54:56.795Z,79.26
2023-01-15T04:59:59.853Z,79.30
2023-01-15T05:05:02.660Z,78.97
2023-01-15T05:10:07.299Z,79.04
2023-01-15T05:15:10.556Z,79.18
2023-01-15T05:20:15.034Z,78.96
2023-01-15T05:25:17.871Z,78.96
2023-01-15T05:30:20.784Z,78.92
2023-01-15T05:35:23.620Z,78.25
2023-01-15T05:40:26.442Z,78.17
2023-01-15T05:45:29.355Z,78.48
2023-01-15T05:50:32.207Z,78.06
2023-01-15T05:55:35.102Z,77.39
2023-01-15T06:00:38.000Z,76.93
2023-01-15T06:05:40.870Z,76.56
2023-01-15T06:10:45.743Z,76.46
2023-01-15T06:15:48.556Z,76.48
2023-01-15T06:20:51.441Z,76.09
2023-01-15T06:25:54.536Z,75.99
2023-01-15T06:30:57.309Z,75.77
2023-01-15T06:36:11.076Z,75.81
2023-01-15T06:41:45.791Z,75.10
2023-01-15T06:47:09.455Z,75.51
2023-01-15T06:52:12.261Z,75.80
2023-01-15T06:57:15.091Z,75.61
2023-01-15T07:02:18.670Z,76.04
2023-01-15T07:07:21.861Z,76.10
2023-01-15T07:12:24.695Z,76.64
2023-01-15T07:17:28.685Z,76.79
2023-01-15T07:22:31.934Z,77.29
2023-01-15T07:27:34.774Z,78.06
2023-01-15T07:32:38.010Z,78.60
2023-01-15T07:37:40.908Z,79.12
2023-01-15T07:43:02.420Z,79.32
2023-01-15T07:48:28.915Z,79.86
2023-01-15T07:53:31.716Z,80.58
2023-01-15T07:58:34.559Z,80.40
2023-01-15T08:03:37.820Z,80.39
2023-01-15T08:08:40.659Z,80.61
2023-01-15T08:14:02.199Z,80.69
2023-01-15T08:19:05.110Z,80.78
2023-01-15T08:24:07.977Z,80.88
2023-01-15T08:29:10.861Z,81.08
2023-01-15T08:34:13.706Z,80.99
2023-01-15T08:39:16.487Z,80.72
2023-01-15T08:44:21.639Z,80.43
2023-01-15T08:49:24.528Z,80.53
2023-01-15T08:54:27.477Z,80.52
2023-01-15T08:59:30.666Z,80.70
2023-01-15T09:04:33.602Z,80.44
2023-01-15T09:09:36.551Z,80.29
2023-01-15T09:14:58.463Z,80.50
2023-01-15T09:20:06.789Z,80.76
2023-01-15T09:25:10.155Z,80.91
2023-01-15T09:30:21.561Z,81.23
2023-01-15T09:35:24.434Z,81.78
2023-01-15T09:40:57.515Z,81.89
2023-01-15T09:46:16.708Z,82.39
2023-01-15T09:51:35.772Z,82.77
2023-01-15T09:56:38.720Z,83.47
2023-01-15T10:01:41.533Z,83.67
2023-01-15T10:07:04.350Z,84.14
2023-01-15T10:12:35.528Z,84.42
2023-01-15T10:17:44.265Z,84.86
2023-01-15T10:23:31.242Z,85.05
2023-01-15T10:28:58.479Z,85.74
2023-01-15T10:34:37.946Z,85.85
2023-01-15T10:40:14.747Z,86.06
2023-01-15T10:45:26.905Z,86.24
2023-01-15T10:50:29.743Z,86.42
2023-01-15T10:55:41.933Z,86.76
2023-01-15T11:00:52.721Z,86.99
2023-01-15T11:05:57.578Z,87.42
2023-01-15T11:11:53.614Z,87.43
2023-01-15T11:17:08.675Z,88.12
2023-01-15T11:22:18.456Z,88.26
2023-01-15T11:27:25.006Z,88.55
2023-01-15T11:32:32.875Z,88.56
2023-01-15T11:37:35.680Z,89.07
2023-01-15T11:42:57.533Z,89.33
2023-01-15T11:48:19.079Z,89.51
2023-01-15T11:53:27.766Z,89.52
2023-01-15T11:58:34.284Z,89.57
2023-01-15T12:03:37.214Z,90.27
2023-01-15T12:08:56.917Z,90.01
2023-01-15T12:14:09.973Z,90.38
2023-01-15T12:19:37.085Z,90.21
2023-01-15T12:25:18.980Z,90.53
2023-01-15T12:30:40.072Z,90.49
2023-01-15T12:35:47.141Z,90.86
2023-01-15T12:40:57.493Z,91.15
2023-01-15T12:46:00.357Z,91.52
2023-01-15T12:51:04.654Z,91.75
2023-01-15T12:56:37.524Z,91.93
2023-01-15T13:02:17.478Z,92.16
2023-01-15T13:08:03.987Z,92.13
2023-01-15T13:13:17.058Z,92.33
2023-01-15T13:19:04.298Z,92.20
2023-01-15T13:24:19.956Z,92.53
2023-01-15T13:30:12.997Z,91.93
2023-01-15T13:35:34.356Z,92.01
2023-01-15T13:40:44.392Z,91.52
2023-01-15T13:45:50.133Z,91.67
2023-01-15T13:50:55.041Z,91.18
2023-01-15T13:56:06.417Z,91.46
2023-01-15T14:01:20.572Z,91.23
2023-01-15T14:06:23.602Z,91.42
2023-01-15T14:11:55.247Z,91.45
2023-01-15T14:17:12.478Z,91.28
2023-01-15T14:22:40.138Z,91.66
2023-01-15T14:28:02.243Z,91.15
2023-01-15T14:33:11.141Z,91.10
2023-01-15T14:38:19.261Z,91.11
2023-01-15T14:43:22.592Z,90.70
2023-01-15T14:48:28.128Z,90.88
2023-01-15T14:53:34.233Z,90.78
2023-01-15T14:58:49.163Z,90.75
2023-01-15T15:04:07.115Z,90.94
2023-01-15T15:09:13.699Z,90.82
2023-01-15T15:14:16.577Z,90.71
2023-01-15T15:19:40.711Z,90.43
2023-01-15T15:24:49.807Z,90.40
2023-01-15T15:29:52.656Z,90.37
2023-01-15T15:34:56.105Z,89.92
2023-01-15T15:40:05.014Z,90.42
2023-01-15T15:45:46.659Z,89.97
2023-01-15T15:50:49.754Z,89.61
2023-01-15T15:55:53.288Z,89.37
2023-01-15T16:00:57.575Z,89.43
2023-01-15T16:06:03.390Z,89.07
2023-01-15T16:11:09.108Z,88.30
2023-01-15T16:16:12.008Z,87.40
2023-01-15T16:21:22.252Z,87.24
2023-01-15T16:26:35.027Z,86.90
2023-01-15T16:31:37.829Z,87.05
2023-01-15T16:36:42.238Z,87.18
2023-01-15T16:41:45.424Z,87.53
2023-01-15T16:46:55.759Z,87.85
2023-01-15T16:52:00.844Z,88.20
2023-01-15T16:57:23.782Z,88.94
2023-01-15T17:02:29.923Z,90.28
2023-01-15T17:07:37.409Z,90.94
2023-01-15T17:12:40.280Z,91.60
2023-01-15T17:17:49.474Z,91.56
2023-01-15T17:22:52.451Z,93.22
2023-01-15T17:27:56.041Z,92.94
2023-01-15T17:33:03.340Z,93.03
2023-01-15T17:38:07.523Z,93.56
2023-01-15T17:43:15.067Z,92.81
2023-01-15T17:48:18.516Z,93.44
2023-01-15T17:53:22.574Z,93.38
2023-01-15T17:58:44.009Z,94.18
2023-01-15T18:04:08.945Z,95.34
2023-01-15T18:09:11.695Z,95.78
2023-01-15T18:14:14.532Z,95.97
2023-01-15T18:19:17.410Z,94.80
2023-01-15T18:24:22.225Z,95.16
2023-01-15T18:29:25.500Z,95.19
2023-01-15T18:34:28.418Z,96.18
2023-01-15T18:39:31.526Z,97.04
2023-01-15T18:44:53.118Z,97.18
2023-01-15T18:49:56.279Z,96.52
2023-01-15T18:55:00.684Z,96.58
2023-01-15T19:00:04.128Z,96.25
2023-01-15T19:05:07.344Z,96.82
2023-01-15T19:10:11.878Z,96.99
2023-01-15T19:15:36.672Z,97.16
2023-01-15T19:20:39.555Z,97.13
2023-01-15T19:25:45.408Z,96.92
2023-01-15T19:31:07.800Z,97.28
2023-01-15T19:36:11.187Z,96.77
2023-01-15T19:41:32.718Z,96.91
2023-01-15T19:47:07.961Z,96.94
2023-01-15T19:52:29.213Z,96.45
2023-01-15T19:57:32.056Z,96.30
2023-01-15T20:02:35.013Z,96.27
2023-01-15T20:07:38.318Z,96.12
2023-01-15T20:12:59.825Z,96.39
2023-01-15T20:18:02.624Z,96.55
2023-01-15T20:23:05.845Z,96.34
2023-01-15T20:28:08.657Z,96.62
2023-01-15T20:33:12.098Z,96.57
2023-01-15T20:38:19.057Z,96.46
2023-01-15T20:43:40.597Z,96.35
2023-01-15T20:49:01.805Z,96.87
2023-01-15T20:54:04.766Z,96.86
2023-01-15T20:59:07.550Z,97.15
2023-01-15T21:04:12.612Z,97.27
2023-01-15T21:09:16.664Z,97.19
2023-01-15T21:14:19.502Z,97.29
2023-01-15T21:19:23.313Z,97.04
2023-01-15T21:24:26.405Z,97.22
2023-01-15T21:29:29.449Z,97.19
2023-01-15T21:34:32.288Z,96.97
2023-01-15T21:39:35.128Z,97.22
2023-01-15T21:44:43.464Z,96.76
2023-01-15T21:49:46.844Z,97.18
2023-01-15T21:54:50.186Z,96.91
2023-01-15T21:59:53.032Z,96.79
2023-01-15T22:04:55.824Z,96.85
2023-01-15T22:09:58.617Z,96.77
2023-01-15T22:15:01.393Z,96.59
2023-01-15T22:20:06.274Z,96.26
2023-01-15T22:25:11.912Z,96.21
2023-01-15T22:30:16.756Z,95.62
2023-01-15T22:35:19.627Z,95.92
2023-01-15T22:40:22.474Z,95.68
2023-01-15T22:45:25.347Z,95.70
2023-01-15T22:50:28.307Z,95.80
2023-01-15T22:55:31.148Z,95.95
2023-01-15T23:00:34.099Z,95.71
2023-01-15T23:05:39.829Z,96.04
2023-01-15T23:10:45.894Z,95.98
2023-01-15T23:15:58.718Z,95.45
2023-01-15T23:21:04.735Z,95.13
2023-01-15T23:26:12.977Z,95.47
2023-01-15T23:31:15.809Z,95.05
2023-01-15T23:36:18.758Z,95.28
2023-01-15T23:41:44.875Z,95.33
2023-01-15T23:46:48.232Z,95.20
2023-01-15T23:51:51.187Z,95.22
2023-01-15T23:56:55.141Z,95.05
